Terminal Aerodrome Forecast
Issued by NWS Twin Cities, MN

Home | Current Version | Previous Version | Graphics & Text | Print | Product List | Glossary Off
Versions: 1 2 3 4 5 6 7 8 9 10 11 12 13 14 15

000
FTUS43 KMPX 211806 AAA
TAFEAU
TAF AMD
KEAU 211806Z 2118/2218 12010KT P6SM -RA BKN020 OVC030
     FM220300 VRB03KT P6SM BKN008
     FM220600 00000KT 1SM BR OVC003
     FM221500 15001KT P6SM OVC007
     FM221700 18002KT P6SM OVC015=

USA.gov is the U.S. government's official web portal to all federal, state and local government web resources and services.